createdAt,value
2022-11-19T00:02:00.341Z,2.30
2022-11-19T00:04:49.801Z,1.90
2022-11-19T00:07:39.405Z,1.70
2022-11-19T00:10:29.054Z,1.90
2022-11-19T00:13:18.456Z,1.73
2022-11-19T00:16:09.121Z,1.60
2022-11-19T00:18:58.369Z,2.38
2022-11-19T00:21:48.982Z,2.20
2022-11-19T00:24:39.620Z,3.00
2022-11-19T00:27:28.933Z,2.22
2022-11-19T00:30:46.420Z,2.00
2022-11-19T00:33:31.248Z,1.83
2022-11-19T00:36:20.293Z,2.10
2022-11-19T00:39:10.085Z,2.30
2022-11-19T00:41:59.124Z,2.25
2022-11-19T00:44:48.607Z,2.00
2022-11-19T00:47:39.327Z,2.20
2022-11-19T00:50:28.184Z,2.05
2022-11-19T00:53:17.237Z,2.27
2022-11-19T00:56:09.210Z,2.65
2022-11-19T00:58:59.306Z,3.23
2022-11-19T01:01:48.573Z,3.50
2022-11-19T01:04:39.457Z,3.10
2022-11-19T01:07:28.633Z,3.63
2022-11-19T01:10:18.717Z,3.50
2022-11-19T01:13:24.959Z,3.53
2022-11-19T01:16:15.932Z,3.17
2022-11-19T01:19:06.465Z,2.60
2022-11-19T01:21:57.619Z,2.17
2022-11-19T01:24:46.596Z,2.07
2022-11-19T01:27:35.523Z,2.33
2022-11-19T01:30:25.052Z,2.17
2022-11-19T01:33:14.934Z,1.90
2022-11-19T01:36:05.627Z,2.07
2022-11-19T01:38:56.632Z,1.80
2022-11-19T01:41:45.708Z,2.10
2022-11-19T01:45:02.673Z,2.40
2022-11-19T01:47:52.617Z,2.37
2022-11-19T01:50:43.388Z,2.30
2022-11-19T01:53:35.561Z,2.00
2022-11-19T01:56:27.263Z,1.90
2022-11-19T01:59:19.417Z,2.30
2022-11-19T02:02:09.013Z,2.50
2022-11-19T02:04:58.859Z,2.80
2022-11-19T02:07:56.689Z,2.33
2022-11-19T02:10:56.736Z,3.07
2022-11-19T02:13:49.913Z,2.60
2022-11-19T02:16:45.141Z,2.23
2022-11-19T02:20:15.822Z,2.40
2022-11-19T02:23:31.834Z,1.77
2022-11-19T02:27:06.509Z,2.13
2022-11-19T02:30:09.019Z,2.33
2022-11-19T02:33:02.632Z,1.63
2022-11-19T02:35:58.719Z,2.50
2022-11-19T02:38:53.417Z,2.10
2022-11-19T02:41:47.905Z,2.00
2022-11-19T02:44:55.772Z,2.17
2022-11-19T02:47:48.465Z,2.00
2022-11-19T02:50:39.678Z,2.17
2022-11-19T02:53:28.943Z,2.30
2022-11-19T02:56:38.036Z,2.00
2022-11-19T02:59:52.577Z,2.03
2022-11-19T03:03:00.248Z,2.30
2022-11-19T03:05:52.733Z,1.90
2022-11-19T03:08:42.592Z,1.90
2022-11-19T03:11:32.844Z,2.03
2022-11-19T03:14:43.223Z,2.70
2022-11-19T03:17:34.332Z,2.30
2022-11-19T03:20:25.455Z,2.33
2022-11-19T03:23:18.527Z,2.50
2022-11-19T03:26:13.864Z,2.37
2022-11-19T03:29:05.345Z,2.10
2022-11-19T03:31:57.196Z,2.00
2022-11-19T03:34:47.532Z,2.43
2022-11-19T03:37:38.045Z,2.70
2022-11-19T03:40:29.591Z,2.73
2022-11-19T03:43:21.187Z,3.27
2022-11-19T03:46:12.731Z,3.07
2022-11-19T03:49:02.880Z,3.30
2022-11-19T03:51:54.033Z,3.43
2022-11-19T03:54:43.681Z,2.97
2022-11-19T03:57:34.588Z,2.97
2022-11-19T04:00:23.913Z,2.60
2022-11-19T04:03:12.995Z,2.87
2022-11-19T04:06:02.536Z,3.20
2022-11-19T04:08:51.486Z,3.43
2022-11-19T04:11:40.736Z,3.67
2022-11-19T04:14:32.277Z,3.50
2022-11-19T08:46:42.831Z,3.83
2022-11-19T08:49:34.542Z,4.27
2022-11-19T08:52:24.140Z,3.50
2022-11-19T08:55:13.810Z,3.83
2022-11-19T08:58:03.312Z,3.53
2022-11-19T09:00:52.683Z,3.53
2022-11-19T09:03:43.784Z,3.83
2022-11-19T09:06:35.493Z,3.50
2022-11-19T09:09:24.963Z,4.13
2022-11-19T09:12:13.777Z,3.83
2022-11-19T09:15:02.673Z,4.10
2022-11-19T09:17:52.455Z,4.87
2022-11-19T09:20:43.134Z,5.13
2022-11-19T09:23:32.500Z,4.77
2022-11-19T09:26:21.675Z,5.37
2022-11-19T09:29:10.826Z,5.60
2022-11-19T09:32:00.056Z,5.60
2022-11-19T09:34:50.121Z,4.83
2022-11-19T09:37:40.997Z,5.73
2022-11-19T09:40:30.254Z,5.27
2022-11-19T09:43:28.465Z,5.67
2022-11-19T09:46:25.107Z,6.10
2022-11-19T09:49:18.446Z,6.67
2022-11-19T09:52:11.348Z,6.53
2022-11-19T09:55:03.898Z,7.23
2022-11-19T09:57:56.832Z,7.00
2022-11-19T10:00:46.967Z,6.93
2022-11-19T10:03:36.328Z,6.10
2022-11-19T10:06:30.954Z,6.57
2022-11-19T10:09:42.496Z,6.07
2022-11-19T10:12:53.349Z,6.33
2022-11-19T10:15:54.612Z,5.90
2022-11-19T10:18:54.349Z,6.40
2022-11-19T10:21:55.056Z,6.03
2022-11-19T10:24:47.501Z,5.87
2022-11-19T10:27:44.592Z,6.17
2022-11-19T10:30:33.414Z,7.10
2022-11-19T10:33:29.502Z,6.20
2022-11-19T10:36:24.534Z,6.00
2022-11-19T10:39:19.652Z,7.27
2022-11-19T10:42:19.578Z,7.43
2022-11-19T10:45:18.081Z,7.40
2022-11-19T10:48:13.042Z,7.57
2022-11-19T10:51:02.186Z,7.80
2022-11-19T10:53:52.605Z,8.67
2022-11-19T10:56:43.889Z,8.67
2022-11-19T10:59:34.499Z,9.93
2022-11-19T11:02:34.052Z,10.50
2022-11-19T11:05:22.942Z,10.80
2022-11-19T11:08:12.671Z,9.80
2022-11-19T11:11:02.195Z,11.17
2022-11-19T11:14:08.830Z,10.93
2022-11-19T11:16:58.302Z,10.13
2022-11-19T11:19:58.827Z,10.70
2022-11-19T11:22:50.191Z,11.97
2022-11-19T11:25:41.640Z,13.47
2022-11-19T11:28:31.426Z,12.70
2022-11-19T11:31:30.809Z,11.97
2022-11-19T11:34:31.692Z,12.73
2022-11-19T11:37:23.085Z,12.80
2022-11-19T11:40:21.200Z,12.67
2022-11-19T11:43:19.703Z,13.47
2022-11-19T11:46:11.186Z,14.50
2022-11-19T11:49:05.867Z,14.07
2022-11-19T11:52:14.260Z,13.87
2022-11-19T11:55:06.891Z,13.30
2022-11-19T11:57:57.672Z,13.70
2022-11-19T12:00:47.805Z,14.20
2022-11-19T12:03:54.106Z,14.63
2022-11-19T12:06:52.067Z,14.87
2022-11-19T12:09:48.098Z,14.63
2022-11-19T12:12:44.349Z,16.80
2022-11-19T12:15:43.807Z,14.87
2022-11-19T12:18:40.563Z,14.87
2022-11-19T12:21:38.248Z,15.53
2022-11-19T12:24:50.325Z,15.60
2022-11-19T12:27:50.972Z,16.20
2022-11-19T12:30:51.614Z,16.97
2022-11-19T12:33:58.722Z,17.27
2022-11-19T12:36:57.269Z,20.00
2022-11-19T12:39:53.786Z,18.30
2022-11-19T12:42:57.552Z,18.00
2022-11-19T12:45:55.917Z,19.03
2022-11-19T12:48:59.213Z,17.43
2022-11-19T12:51:59.026Z,21.00
2022-11-19T12:54:58.318Z,16.73
2022-11-19T12:57:56.903Z,17.33
2022-11-19T13:00:53.928Z,18.20
2022-11-19T13:03:52.008Z,18.00
2022-11-19T13:06:46.892Z,18.30
2022-11-19T13:09:40.769Z,17.43
2022-11-19T13:12:37.118Z,19.60
2022-11-19T13:15:32.047Z,20.60
2022-11-19T13:18:22.671Z,19.00
2022-11-19T13:21:25.087Z,19.53
2022-11-19T13:24:23.968Z,21.00
2022-11-19T13:27:22.740Z,20.77
2022-11-19T13:30:20.177Z,21.17
2022-11-19T13:33:19.858Z,23.43
2022-11-19T13:36:17.191Z,24.30
2022-11-19T13:39:16.690Z,23.47
2022-11-19T13:42:24.727Z,26.47
2022-11-19T13:45:16.345Z,24.60
2022-11-19T13:48:11.607Z,23.80
2022-11-19T13:51:05.614Z,27.27
2022-11-19T13:54:02.612Z,26.03
2022-11-19T13:56:55.879Z,25.70
2022-11-19T13:59:46.253Z,26.37
2022-11-19T14:02:50.155Z,24.87
2022-11-19T14:05:54.771Z,25.27
2022-11-19T14:09:00.194Z,26.73
2022-11-19T14:12:02.214Z,25.00
2022-11-19T14:15:15.186Z,23.83
2022-11-19T14:18:26.224Z,25.73
2022-11-19T14:21:56.903Z,27.00
2022-11-19T14:25:17.149Z,26.90
2022-11-19T14:28:22.283Z,28.07
2022-11-19T14:31:11.902Z,27.10
2022-11-19T14:34:03.947Z,26.47
2022-11-19T14:36:53.355Z,27.60
2022-11-19T14:39:44.356Z,27.65
2022-11-19T14:42:55.186Z,27.17
2022-11-19T14:46:04.489Z,26.87
2022-11-19T14:48:55.456Z,27.93
2022-11-19T14:51:44.781Z,29.50
2022-11-19T14:54:35.957Z,28.13
2022-11-19T14:57:30.021Z,29.23
2022-11-19T15:00:29.530Z,28.23
2022-11-19T15:03:25.528Z,27.03
2022-11-19T15:06:20.032Z,24.90
2022-11-19T15:09:13.148Z,28.77
2022-11-19T15:12:03.530Z,29.20
2022-11-19T15:15:08.627Z,26.13
2022-11-19T15:18:03.345Z,27.83
2022-11-19T15:21:14.411Z,27.23
2022-11-19T15:24:12.418Z,26.07
2022-11-19T15:27:11.399Z,27.50
2022-11-19T15:30:09.045Z,26.63
2022-11-19T15:33:16.520Z,30.20
2022-11-19T15:36:33.620Z,27.83
2022-11-19T15:39:28.370Z,26.58
2022-11-19T15:42:22.420Z,28.17
2022-11-19T15:45:18.129Z,28.17
2022-11-19T15:48:16.072Z,30.17
2022-11-19T15:51:06.514Z,27.48
2022-11-19T15:54:02.944Z,28.03
2022-11-19T15:56:52.698Z,26.50
2022-11-19T15:59:41.926Z,28.83
2022-11-19T16:02:36.836Z,27.50
2022-11-19T16:05:30.124Z,28.30
2022-11-19T16:08:19.543Z,27.20
2022-11-19T16:11:26.137Z,27.70
2022-11-19T16:14:43.124Z,29.38
2022-11-19T16:17:44.185Z,27.50
2022-11-19T16:20:36.344Z,28.07
2022-11-19T16:23:27.484Z,28.13
2022-11-19T16:26:16.427Z,27.80
2022-11-19T16:29:05.993Z,25.35
2022-11-19T16:31:57.982Z,24.20
2022-11-19T16:34:48.572Z,23.70
2022-11-19T16:37:41.678Z,22.87
2022-11-19T16:40:53.506Z,23.70
2022-11-19T16:43:43.931Z,22.70
2022-11-19T16:46:34.327Z,23.70
2022-11-19T16:49:32.186Z,22.70
2022-11-19T16:52:43.876Z,23.63
2022-11-19T16:55:44.317Z,24.53
2022-11-19T16:58:34.024Z,25.27
2022-11-19T17:01:28.134Z,24.87
2022-11-19T17:04:19.934Z,25.27
2022-11-19T17:07:14.763Z,25.30
2022-11-19T17:10:30.548Z,28.53
2022-11-19T17:13:32.836Z,26.50
2022-11-19T17:16:25.239Z,29.43
2022-11-19T17:19:21.462Z,28.87
2022-11-19T17:22:19.689Z,27.53
2022-11-19T17:25:21.399Z,29.00
2022-11-19T17:28:19.739Z,28.63
2022-11-19T17:31:17.063Z,28.87
2022-11-19T17:34:12.762Z,27.67
2022-11-19T17:37:01.714Z,26.60
2022-11-19T17:39:50.700Z,27.87
2022-11-19T17:42:58.282Z,27.87
2022-11-19T17:45:47.524Z,26.73
2022-11-19T17:48:36.537Z,27.30
2022-11-19T17:51:27.002Z,26.37
2022-11-19T17:54:15.736Z,26.87
2022-11-19T17:57:04.700Z,27.07
2022-11-19T17:59:55.174Z,26.00
2022-11-19T18:02:44.671Z,25.57
2022-11-19T18:05:35.800Z,27.27
2022-11-19T18:08:24.882Z,28.67
2022-11-19T18:11:15.558Z,26.87
2022-11-19T18:14:10.182Z,26.63
2022-11-19T18:17:00.787Z,28.93
2022-11-19T18:19:49.920Z,29.13
2022-11-19T18:22:39.225Z,26.43
2022-11-19T18:25:28.601Z,26.73
2022-11-19T18:28:17.977Z,26.70
2022-11-19T18:31:07.358Z,27.70
2022-11-19T18:33:58.602Z,28.73
2022-11-19T18:36:48.406Z,29.33
2022-11-19T18:39:37.663Z,30.23
2022-11-19T18:42:27.383Z,29.50
2022-11-19T18:45:15.475Z,29.10
2022-11-19T18:48:05.051Z,29.47
2022-11-19T18:50:56.769Z,28.37
2022-11-19T18:53:46.242Z,30.63
2022-11-19T18:56:35.171Z,31.50
2022-11-19T18:59:24.613Z,29.80
2022-11-19T19:02:13.399Z,31.80
2022-11-19T19:05:02.215Z,30.07
2022-11-19T19:07:52.970Z,31.00
2022-11-19T19:10:43.020Z,29.80
2022-11-19T19:13:32.144Z,29.07
2022-11-19T19:16:21.683Z,30.23
2022-11-19T19:19:14.789Z,29.30
2022-11-19T19:22:03.647Z,30.73
2022-11-19T19:24:58.163Z,27.77
2022-11-19T19:27:47.930Z,30.57
2022-11-19T19:30:37.236Z,30.13
2022-11-19T19:33:26.967Z,27.07
2022-11-19T19:36:18.172Z,29.53
2022-11-19T19:39:06.903Z,30.23
2022-11-19T19:41:57.432Z,29.17
2022-11-19T19:44:46.918Z,30.10
2022-11-19T19:47:35.782Z,31.97
2022-11-19T19:50:24.795Z,29.43
2022-11-19T19:53:13.643Z,27.20
2022-11-19T19:56:06.049Z,30.63
2022-11-19T19:58:57.025Z,31.37
2022-11-19T20:01:47.939Z,29.27
2022-11-19T20:04:36.976Z,30.60
2022-11-19T20:07:26.163Z,32.13
2022-11-19T20:10:15.722Z,29.50
2022-11-19T20:13:22.185Z,31.42
2022-11-19T20:16:18.164Z,32.17
2022-11-19T20:19:09.215Z,32.57
2022-11-19T20:21:58.730Z,30.90
2022-11-19T20:24:47.891Z,31.57
2022-11-19T20:27:37.671Z,30.27
2022-11-19T20:30:26.735Z,31.40
2022-11-19T20:33:17.776Z,29.75
2022-11-19T20:36:07.963Z,28.40
2022-11-19T20:38:57.752Z,31.53
2022-11-19T20:42:04.585Z,31.60
2022-11-19T20:44:54.055Z,31.70
2022-11-19T20:47:43.297Z,31.07
2022-11-19T20:50:34.968Z,30.13
2022-11-19T20:53:24.616Z,29.67
2022-11-19T20:56:15.218Z,30.73
2022-11-19T20:59:05.355Z,32.13
2022-11-19T21:01:55.383Z,28.47
2022-11-19T21:04:45.030Z,29.20
2022-11-19T21:07:35.735Z,28.83
2022-11-19T21:10:24.542Z,28.67
2022-11-19T21:13:13.327Z,29.13
2022-11-19T21:16:06.759Z,27.97
2022-11-19T21:18:56.766Z,27.27
2022-11-19T21:21:45.759Z,28.23
2022-11-19T21:24:36.838Z,26.97
2022-11-19T21:27:26.387Z,28.40
2022-11-19T21:30:19.242Z,28.07
2022-11-19T21:33:08.634Z,27.90
2022-11-19T21:35:59.589Z,26.90
2022-11-19T21:38:49.703Z,28.08
2022-11-19T21:41:40.022Z,28.00
2022-11-19T21:44:29.540Z,29.50
2022-11-19T21:47:18.341Z,29.27
2022-11-19T21:50:08.249Z,27.15
2022-11-19T21:52:57.590Z,27.15
2022-11-19T21:55:47.813Z,25.53
2022-11-19T21:58:38.579Z,30.90
2022-11-19T22:01:28.156Z,28.93
2022-11-19T22:04:17.543Z,29.30
2022-11-19T22:07:07.484Z,28.37
2022-11-19T22:09:58.319Z,28.20
2022-11-19T22:12:49.529Z,27.00
2022-11-19T22:15:42.559Z,26.20
2022-11-19T22:18:31.477Z,25.23
2022-11-19T22:21:20.866Z,26.90
2022-11-19T22:24:09.932Z,26.20
2022-11-19T22:26:58.812Z,25.40
2022-11-19T22:29:49.723Z,25.80
2022-11-19T22:32:40.247Z,25.17
2022-11-19T22:35:29.168Z,27.15
2022-11-19T22:38:18.650Z,26.50
2022-11-19T22:41:09.458Z,25.30
2022-11-19T22:43:59.814Z,24.23
2022-11-19T22:46:49.164Z,25.00
2022-11-19T22:49:39.690Z,25.47
2022-11-19T22:52:28.442Z,24.37
2022-11-19T22:55:18.218Z,24.43
2022-11-19T22:58:06.909Z,24.10
2022-11-19T23:00:56.284Z,24.97
2022-11-19T23:03:45.824Z,23.95
2022-11-19T23:06:37.026Z,25.37
2022-11-19T23:09:26.416Z,25.83
2022-11-19T23:12:32.777Z,25.60
2022-11-19T23:15:21.581Z,22.30
2022-11-19T23:18:11.038Z,23.30
2022-11-19T23:21:01.454Z,23.37
2022-11-19T23:23:52.674Z,25.77
2022-11-19T23:26:42.167Z,24.10
2022-11-19T23:29:31.162Z,22.20
2022-11-19T23:32:20.358Z,23.83
2022-11-19T23:35:10.607Z,24.60
2022-11-19T23:38:00.176Z,24.27
2022-11-19T23:40:59.138Z,23.83
2022-11-19T23:43:48.646Z,24.40
2022-11-19T23:46:38.568Z,23.20
2022-11-19T23:49:27.824Z,22.57
2022-11-19T23:52:17.147Z,24.35
2022-11-19T23:55:07.329Z,23.15
2022-11-19T23:57:58.602Z,25.13
